Kikinda, Srbija

09:13 PM CEST on julij 30, 2014 (GMT +0200)
Giarmata (LRTR) Viš 348 ft | 45.81 °N, 21.33 °E | Change Station

Current weather conditions updated 13 minutes ago

Clear
Jasno
75 °F
Feels Like 75 °F
N
4
Veter Spremenljivo Veter od Vzhod

Tomorrow is forecast to be Much Cooler than today. Thunderstorms.

Danes
High -- | Low -- °F
--% Chance of Precip.
Yesterday
High -- | Low -- °F
Precip. -- v
5:18 AM 8:10 PM
Naraščajoči krajec, 13% visible
Zračni tlak 29.74 v
Vidljivost -9999.0 milje
Oblaki
Rosišče 73 °F
Vlažnost 94%
Padavine 0.00 v
Snow Depth Not available.
UV Not available.
Pollen Not available.
Air Quality Not available.
Flu Activity Not available.
METAR LRTR 301900Z 08003KT CAVOK 24/23 Q1007 NOSIG

More Conditions Fewer Conditions

Zračni tlak 29.74 v
Vidljivost -9999.0 milje
Oblaki
Rosišče 73 °F
Vlažnost 94%
Padavine 0.00 v
Snow Depth Not available.
UV Not available.
Pollen Not available.
Air Quality Not available.
Flu Activity Not available.
METAR LRTR 301900Z 08003KT CAVOK 24/23 Q1007 NOSIG

More Conditions Fewer Conditions

10-Day Weather Forecast

Almanac

Astronomija

Jul. 30, 2014 Rise Set
Actual Time 5:18 AM CEST 8:10 PM CEST
Civil Twilight 4:43 AM CEST 8:44 PM CEST
Nautical Twilight 3:59 AM CEST 9:28 PM CEST
Astronomical Twilight 3:06 AM CEST 10:20 PM CEST
Moon 8:46 AM CEST 9:28 PM CEST
Length Of Visible Light 16h 01m
Dolžina dneva
14h 51m
Tomorrow will be 2m 26s shorter.
Naraščajoči krajec, 13% of the Moon is Illuminated
Danes
Naraščajoči krajec
Aug 3
Prvo četrtletje
Aug 10
Polna luna (ščip)
Aug 17
Zadnji krajec
Aug 25
New

Community

WunderPhotos

Upload Photos

1,739,162 photos uploaded!

WunderBlogs® & News

Nearby

Snow Depth

Not available.

Earthquake Activity

City Distance Mag. Time & Date
No recent earthquake activity has been reported nearby.
Minimum magnitude displayed is 2.5.

Coastal Water Temperatures

Mesto Temperatura
No Stations Reporting

Nearby Weather Stations

There are no personal weather stations in this area.